Ar Rutbah, Iraq
Current Conditions -  °F | °C
As of 7:55 AM on Thursday 18 Dec 2014 (Local Time) from KQAJ Reporting Station
Few Clouds Few Clouds  
Wind Chill: 47°   Ceiling: Unl
Heat Index: 50°   Visibility: 6mi
Dew Point: 45°   Wind: 6mph
Humidity: 84%   Direction: 270°W
Pressure: 30.28"   Gusts: NA
Location:  33.04°N, 40.3°E
Report Text: KQAJ 180455Z 27005KT 9999 FEW200 10/07 A3028 RMK SLP256 T00980073
Loading
Personal Weather Stations






























Interactive Weather Map New forecast layout! Learn more

10-Day Weather Forecast

Advertisements
Track Severe Weather on mobile